Time;durP1;ratioP1;P1;durP2;ratioP2;P2;SDS_P1;SDS_P2;PMS_P1;PMS_P2;Temp;Humidity;BMP_temperature;BMP_pressure;BME280_temperature;BME280_humidity;BME280_pressure;Samples;Min_cycle;Max_cycle;Signal;HPM_P1;HPM_P2
2021/06/14 00:01:35;;;;;;;9.45;7.35;;;;;;;18.09;60.23;99237.34;5091967;28;20510;-60
2021/06/14 00:04:00;;;;;;;9.45;7.60;;;;;;;18.41;60.25;99275.91;5092547;28;20036;-60
2021/06/14 00:06:26;;;;;;;8.65;7.38;;;;;;;18.35;60.35;99288.34;5091856;28;20039;-60
2021/06/14 00:08:51;;;;;;;8.23;7.13;;;;;;;18.35;60.64;99288.34;5091907;28;20113;-60
2021/06/14 00:11:17;;;;;;;7.68;6.70;;;;;;;18.33;60.76;99300.41;5092561;28;20060;-59
2021/06/14 00:13:43;;;;;;;18.75;12.48;;;;;;;18.27;60.93;99303.84;5092534;28;20040;-59
2021/06/14 00:16:09;;;;;;;15.23;8.88;;;;;;;18.28;60.97;99294.69;5090733;28;20036;-60
2021/06/14 00:18:35;;;;;;;12.27;7.70;;;;;;;18.26;60.79;99304.88;5091786;28;20032;-61
2021/06/14 00:21:06;;;;;;;11.07;6.65;;;;;;;18.29;60.96;99307.19;5090770;28;20067;-61
2021/06/14 00:23:33;;;;;;;10.48;6.18;;;;;;;18.25;60.86;99311.31;5091946;28;20039;-61
2021/06/14 00:26:00;;;;;;;9.63;6.35;;;;;;;18.24;60.77;99315.06;5091462;28;20036;-60
2021/06/14 00:28:26;;;;;;;13.00;6.18;;;;;;;18.12;60.67;99309.25;5091608;28;20571;-60
2021/06/14 00:30:52;;;;;;;7.75;5.78;;;;;;;18.23;60.64;99327.78;5091608;28;20105;-61
2021/06/14 00:33:19;;;;;;;8.40;6.00;;;;;;;17.78;60.91;99258.13;5091887;28;20407;-60
2021/06/14 00:35:46;;;;;;;8.68;5.80;;;;;;;18.20;60.83;99323.56;5091827;28;20040;-60
2021/06/14 00:38:14;;;;;;;12.77;5.63;;;;;;;18.11;60.84;99327.41;5091312;28;20122;-59
2021/06/14 00:40:40;;;;;;;13.75;5.90;;;;;;;18.11;60.93;99329.25;5092781;28;20031;-60
2021/06/14 00:43:07;;;;;;;8.43;5.70;;;;;;;18.17;60.80;99348.31;5111392;28;20092;-60
2021/06/14 00:45:35;;;;;;;9.38;5.18;;;;;;;18.06;60.67;99313.53;5111802;28;20035;-60
2021/06/14 00:48:03;;;;;;;9.35;5.45;;;;;;;18.21;60.68;99346.91;5111170;28;20479;-61
2021/06/14 00:50:39;;;;;;;10.20;5.60;;;;;;;18.25;61.07;99351.97;5111808;28;20034;-61
2021/06/14 00:53:06;;;;;;;10.35;5.28;;;;;;;18.20;60.69;99353.38;5111623;28;20027;-61
2021/06/14 00:55:32;;;;;;;7.80;5.80;;;;;;;18.17;60.71;99345.63;5111141;28;20042;-59
2021/06/14 00:57:58;;;;;;;12.57;5.38;;;;;;;18.19;60.70;99340.00;5111778;28;20118;-60
2021/06/14 01:00:23;;;;;;;10.02;5.57;;;;;;;18.18;60.74;99341.88;5111242;28;20043;-61
2021/06/14 01:02:49;;;;;;;7.55;5.40;;;;;;;18.04;60.82;99334.56;5111233;28;20031;-61
2021/06/14 01:05:15;;;;;;;8.60;5.63;;;;;;;18.17;61.03;99355.59;5111845;28;20042;-61
2021/06/14 01:07:40;;;;;;;8.82;5.53;;;;;;;18.14;61.10;99354.13;5110771;28;20063;-60
2021/06/14 01:10:07;;;;;;;9.20;5.82;;;;;;;18.14;61.61;99353.25;5109152;28;20082;-60
2021/06/14 01:12:55;;;;;;;10.88;5.68;;;;;;;18.14;62.17;99348.69;5111348;28;20054;-60
2021/06/14 01:15:22;;;;;;;10.77;6.30;;;;;;;18.06;61.82;99351.47;5104670;27;20035;-60
2021/06/14 01:17:55;;;;;;;8.77;6.10;;;;;;;18.08;62.49;99349.41;5090948;28;20035;-60
2021/06/14 01:20:48;;;;;;;11.95;5.90;;;;;;;18.13;62.47;99347.03;5090892;28;20039;-60
2021/06/14 01:23:38;;;;;;;11.13;6.00;;;;;;;18.09;62.42;99353.84;5090793;28;20040;-59
2021/06/14 01:26:23;;;;;;;10.65;6.25;;;;;;;17.66;62.39;99278.53;5090063;28;20032;-60
2021/06/14 01:28:52;;;;;;;11.57;5.87;;;;;;;18.08;61.64;99352.97;5089684;28;20043;-60
2021/06/14 01:31:18;;;;;;;7.93;5.50;;;;;;;18.08;61.73;99357.53;5090898;28;20658;-60
2021/06/14 01:33:45;;;;;;;7.60;5.22;;;;;;;17.88;61.70;99306.59;5090733;28;20039;-59
2021/06/14 01:36:22;;;;;;;7.00;6.00;;;;;;;18.21;62.09;99354.22;5090243;28;20127;-60
2021/06/14 01:38:48;;;;;;;8.30;5.68;;;;;;;18.17;62.02;99351.03;5090905;28;20039;-60
2021/06/14 01:41:16;;;;;;;7.63;5.43;;;;;;;18.19;62.02;99346.28;5090678;28;20131;-60
2021/06/14 01:43:42;;;;;;;7.20;5.68;;;;;;;18.20;61.95;99353.38;5090008;28;20038;-60
2021/06/14 01:46:12;;;;;;;9.60;5.28;;;;;;;17.88;61.70;99298.47;5090053;28;20467;-60
2021/06/14 01:48:40;;;;;;;7.00;5.90;;;;;;;18.24;61.99;99356.56;5090752;28;20039;-60
2021/06/14 01:51:08;;;;;;;8.60;5.45;;;;;;;18.25;62.05;99360.94;5090168;28;20040;-62
2021/06/14 01:53:40;;;;;;;6.38;5.32;;;;;;;18.26;61.68;99354.50;5089931;28;20050;-60
2021/06/14 01:56:09;;;;;;;6.32;5.63;;;;;;;18.34;61.88;99359.81;5089869;28;20148;-61
2021/06/14 01:58:36;;;;;;;8.60;5.82;;;;;;;18.35;61.78;99355.25;5090223;28;20032;-60
2021/06/14 02:01:04;;;;;;;7.95;6.13;;;;;;;18.37;61.76;99358.63;5089994;28;20483;-60
2021/06/14 02:03:31;;;;;;;8.95;5.95;;;;;;;18.33;61.79;99354.59;5088073;28;20032;-61
2021/06/14 02:05:58;;;;;;;10.82;5.78;;;;;;;18.43;61.79;99371.41;5089470;28;20058;-61
2021/06/14 02:08:23;;;;;;;9.93;6.72;;;;;;;18.46;61.65;99373.75;5090354;28;20058;-59
2021/06/14 02:10:49;;;;;;;8.75;5.80;;;;;;;18.50;61.35;99377.78;5089922;28;20499;-59
2021/06/14 02:13:18;;;;;;;8.77;5.78;;;;;;;18.46;61.30;99364.78;5089981;28;20126;-60
2021/06/14 02:15:44;;;;;;;7.15;5.57;;;;;;;18.67;60.82;99387.56;5089808;28;20178;-60
2021/06/14 02:18:12;;;;;;;7.13;5.47;;;;;;;18.86;60.64;99391.59;5090164;28;20044;-60
2021/06/14 02:20:39;;;;;;;9.23;5.68;;;;;;;18.99;59.77;99380.94;5089896;28;20039;-60
2021/06/14 02:23:05;;;;;;;6.68;5.25;;;;;;;19.30;59.17;99393.41;5089807;28;20173;-60
2021/06/14 02:25:30;;;;;;;9.68;5.38;;;;;;;19.57;58.29;99391.00;5089752;28;20119;-61
2021/06/14 02:27:56;;;;;;;8.52;4.78;;;;;;;19.77;57.54;99387.59;5089905;28;20348;-61
2021/06/14 02:30:26;;;;;;;7.05;5.60;;;;;;;20.10;56.89;99400.69;5089724;28;20379;-60
2021/06/14 02:32:53;;;;;;;5.95;5.10;;;;;;;20.21;56.36;99386.53;5089343;28;20123;-61
2021/06/14 02:35:21;;;;;;;10.82;5.28;;;;;;;20.67;55.65;99407.97;5089739;28;20043;-60
2021/06/14 02:37:54;;;;;;;8.38;5.25;;;;;;;21.17;54.03;99416.81;5089754;28;20043;-60
2021/06/14 02:40:23;;;;;;;6.68;5.35;;;;;;;21.43;52.59;99373.53;5092052;28;20036;-60
2021/06/14 02:42:49;;;;;;;9.65;5.30;;;;;;;22.04;51.41;99427.06;5093867;28;20491;-60
2021/06/14 02:45:15;;;;;;;7.70;5.47;;;;;;;22.05;50.98;99412.38;5093866;28;20032;-59
2021/06/14 02:47:41;;;;;;;8.27;6.50;;;;;;;22.13;51.25;99444.06;5094079;28;20028;-60
2021/06/14 02:50:08;;;;;;;12.10;5.97;;;;;;;22.10;50.73;99439.03;5093360;28;20038;-60
2021/06/14 02:52:37;;;;;;;8.48;5.53;;;;;;;21.91;51.29;99414.28;5093496;28;20024;-60
2021/06/14 02:55:14;;;;;;;6.50;5.40;;;;;;;22.11;51.00;99429.81;5093430;28;20055;-60
2021/06/14 02:57:45;;;;;;;7.93;5.38;;;;;;;22.17;50.58;99428.97;5093237;28;20039;-60
2021/06/14 03:00:12;;;;;;;11.60;5.68;;;;;;;22.46;50.10;99440.53;5074914;28;20135;-60
2021/06/14 03:02:38;;;;;;;7.28;5.43;;;;;;;22.79;49.09;99428.72;5093074;28;20036;-60
2021/06/14 03:05:04;;;;;;;5.57;4.93;;;;;;;23.13;48.34;99435.94;5093075;28;20120;-60
2021/06/14 03:07:30;;;;;;;9.02;5.40;;;;;;;23.44;47.73;99437.94;5093471;28;20039;-60
2021/06/14 03:09:56;;;;;;;10.57;5.40;;;;;;;23.66;47.00;99448.53;5092841;28;20035;-60
2021/06/14 03:12:25;;;;;;;8.48;4.53;;;;;;;23.79;46.33;99451.19;5092659;28;20066;-60
2021/06/14 03:14:51;;;;;;;16.17;4.85;;;;;;;23.96;46.16;99438.88;5095295;28;20419;-60
2021/06/14 03:17:17;;;;;;;9.90;4.90;;;;;;;24.23;45.38;99445.84;5113454;28;20406;-60
2021/06/14 03:19:46;;;;;;;8.70;4.30;;;;;;;24.42;44.72;99436.84;5113535;28;20051;-58
2021/06/14 03:22:12;;;;;;;6.80;4.30;;;;;;;24.65;44.14;99437.03;5113047;28;20036;-60
2021/06/14 03:24:39;;;;;;;7.05;4.50;;;;;;;25.02;43.44;99458.16;5113614;28;20040;-60
2021/06/14 03:27:07;;;;;;;7.45;4.20;;;;;;;25.31;42.72;99460.34;5113224;28;20714;-60
2021/06/14 03:29:32;;;;;;;4.32;3.85;;;;;;;25.74;41.46;99431.09;5112789;28;20043;-61
2021/06/14 03:31:59;;;;;;;7.97;4.43;;;;;;;26.49;40.48;99459.88;5111992;28;20130;-60
2021/06/14 03:34:27;;;;;;;7.18;4.20;;;;;;;27.26;38.99;99461.84;5113463;28;20039;-60
2021/06/14 03:36:53;;;;;;;6.35;3.88;;;;;;;28.06;37.14;99470.28;5113208;28;20024;-60
2021/06/14 03:39:20;;;;;;;5.28;3.78;;;;;;;28.77;35.39;99464.25;5112686;28;20042;-60
2021/06/14 03:41:48;;;;;;;6.57;4.07;;;;;;;29.36;34.57;99462.81;5113170;28;20035;-60
2021/06/14 03:44:15;;;;;;;7.00;4.22;;;;;;;29.84;33.17;99470.53;5113509;28;20032;-61
2021/06/14 03:46:41;;;;;;;6.68;4.00;;;;;;;30.36;32.44;99463.56;5113173;28;20497;-60
2021/06/14 03:49:07;;;;;;;5.95;3.83;;;;;;;30.73;31.97;99475.72;5112566;28;20036;-61
2021/06/14 03:51:33;;;;;;;5.20;4.00;;;;;;;30.99;31.22;99475.03;5111460;28;20097;-61
2021/06/14 03:54:00;;;;;;;5.13;3.83;;;;;;;31.35;30.75;99470.56;5112648;28;20035;-61
2021/06/14 03:56:31;;;;;;;4.32;3.85;;;;;;;31.79;28.82;99479.53;5112951;28;20054;-61
2021/06/14 03:58:57;;;;;;;5.10;4.18;;;;;;;32.18;29.50;99470.72;5112209;28;20035;-60
2021/06/14 04:01:24;;;;;;;5.70;3.75;;;;;;;32.62;28.37;99465.72;5111938;27;20471;-60
2021/06/14 04:06:36;;;;;;;5.80;4.00;;;;;;;33.84;26.39;99484.13;5100774;28;20043;-60
2021/06/14 04:09:01;;;;;;;5.28;3.85;;;;;;;34.18;25.46;99463.91;5112538;28;20375;-60
2021/06/14 04:11:28;;;;;;;5.97;4.20;;;;;;;34.86;24.98;99485.50;5112129;28;20223;-60
2021/06/14 04:13:53;;;;;;;6.80;3.85;;;;;;;35.24;24.23;99488.44;5112552;28;20044;-61
2021/06/14 04:16:19;;;;;;;7.30;3.97;;;;;;;35.82;23.33;99496.91;5097673;28;20040;-60
2021/06/14 04:18:45;;;;;;;9.50;3.80;;;;;;;36.30;22.51;99498.66;5091996;28;20032;-60
2021/06/14 04:21:11;;;;;;;4.63;3.63;;;;;;;36.59;22.00;99492.03;5091983;28;20422;-62
2021/06/14 04:23:36;;;;;;;3.45;3.03;;;;;;;36.72;21.41;99491.25;5092241;28;20035;-60
2021/06/14 04:26:02;;;;;;;6.38;3.60;;;;;;;37.19;21.08;99471.66;5090989;28;20439;-62
2021/06/14 04:28:28;;;;;;;4.63;3.70;;;;;;;37.72;20.72;99482.53;5090353;28;20039;-60
2021/06/14 04:30:53;;;;;;;5.10;3.70;;;;;;;38.18;20.26;99478.66;5090704;28;20119;-61
2021/06/14 04:33:19;;;;;;;7.40;3.50;;;;;;;38.48;19.58;99495.81;5091527;28;20068;-61
2021/06/14 04:35:45;;;;;;;5.15;3.80;;;;;;;38.67;19.71;99499.53;5091662;28;20074;-61
2021/06/14 04:38:10;;;;;;;4.50;3.60;;;;;;;39.08;19.02;99486.41;5091200;28;20498;-61
2021/06/14 04:40:36;;;;;;;4.00;3.55;;;;;;;39.57;18.46;99498.41;5091733;28;20040;-61
2021/06/14 04:43:02;;;;;;;6.90;3.78;;;;;;;40.12;18.04;99496.13;5091510;28;20035;-61
2021/06/14 04:45:27;;;;;;;6.45;3.67;;;;;;;40.47;17.49;99496.06;5091146;28;20392;-60
2021/06/14 04:47:52;;;;;;;3.92;3.63;;;;;;;40.93;16.66;99490.00;5089784;28;20036;-61
2021/06/14 04:50:18;;;;;;;6.68;4.28;;;;;;;41.59;16.29;99487.84;5091478;28;20042;-60
2021/06/14 04:52:43;;;;;;;6.10;4.13;;;;;;;42.03;15.59;99501.59;5091091;28;20034;-61
2021/06/14 04:55:09;;;;;;;5.07;3.88;;;;;;;42.46;15.67;99505.16;5091389;28;20032;-62
2021/06/14 04:57:35;;;;;;;4.22;3.80;;;;;;;42.92;14.62;99504.31;5090966;28;20039;-61
2021/06/14 05:00:00;;;;;;;5.50;3.97;;;;;;;43.27;14.47;99501.84;5090408;28;20040;-61
2021/06/14 05:02:26;;;;;;;4.72;4.00;;;;;;;43.74;14.22;99508.94;5090893;28;20047;-61
2021/06/14 05:04:52;;;;;;;6.22;3.80;;;;;;;44.42;13.75;99514.94;5091192;28;20077;-60
2021/06/14 05:07:17;;;;;;;6.00;3.45;;;;;;;45.20;12.60;99508.06;5091021;28;20194;-61
2021/06/14 05:09:43;;;;;;;4.90;3.78;;;;;;;45.41;12.68;99523.91;5090147;28;20038;-61
2021/06/14 05:12:09;;;;;;;6.82;4.20;;;;;;;44.54;13.09;99522.53;5090583;28;20497;-59
2021/06/14 05:14:34;;;;;;;5.97;3.78;;;;;;;44.73;12.88;99521.81;5091197;28;20048;-61
2021/06/14 05:17:00;;;;;;;5.10;3.72;;;;;;;45.72;12.34;99514.53;5089354;28;20540;-61
2021/06/14 05:19:25;;;;;;;5.13;3.70;;;;;;;46.20;11.83;99519.19;5090716;28;20043;-61
2021/06/14 05:21:51;;;;;;;4.95;3.33;;;;;;;45.99;11.73;99519.50;5090843;28;20044;-64
2021/06/14 05:24:17;;;;;;;5.80;3.53;;;;;;;46.17;11.78;99519.09;5090783;28;20040;-62
2021/06/14 05:26:42;;;;;;;3.58;3.25;;;;;;;46.92;11.07;99524.56;5090670;28;20028;-62
2021/06/14 05:29:08;;;;;;;4.15;3.47;;;;;;;47.65;10.72;99517.97;5090697;28;20608;-63
2021/06/14 05:31:33;;;;;;;3.45;3.17;;;;;;;48.32;10.43;99522.06;5090825;28;20036;-61
2021/06/14 05:33:59;;;;;;;4.32;3.47;;;;;;;48.74;10.21;99527.75;5090159;28;20028;-66
2021/06/14 05:36:24;;;;;;;4.93;3.92;;;;;;;48.95;9.42;99510.09;5090335;28;20136;-64
2021/06/14 05:38:50;;;;;;;3.70;3.20;;;;;;;49.10;9.46;99488.28;5090946;28;20039;-62
2021/06/14 05:41:15;;;;;;;4.65;3.35;;;;;;;49.55;8.85;99531.66;5090898;28;20096;-63
2021/06/14 05:43:41;;;;;;;4.57;3.45;;;;;;;49.83;9.08;99530.16;5090079;28;20032;-61
2021/06/14 05:46:06;;;;;;;5.75;3.15;;;;;;;49.96;8.79;99518.44;5090009;28;20440;-61
2021/06/14 05:48:32;;;;;;;3.90;3.50;;;;;;;50.17;8.71;99522.59;5090729;28;20032;-62
2021/06/14 05:50:57;;;;;;;5.82;3.53;;;;;;;50.64;8.43;99526.34;5094290;28;20107;-62
2021/06/14 05:53:24;;;;;;;4.25;3.58;;;;;;;50.97;7.97;99521.50;5090043;28;20132;-64
2021/06/14 05:55:50;;;;;;;4.93;3.47;;;;;;;51.29;7.95;99536.09;5089917;28;20550;-61
2021/06/14 05:58:16;;;;;;;5.30;3.90;;;;;;;51.47;7.88;99542.63;5098080;28;20031;-62
2021/06/14 06:00:42;;;;;;;5.28;3.30;;;;;;;50.95;8.18;99540.22;5098257;28;20050;-62
2021/06/14 06:03:07;;;;;;;6.20;3.50;;;;;;;49.23;9.25;99548.47;5097958;28;20565;-61
2021/06/14 06:05:33;;;;;;;6.50;3.47;;;;;;;48.64;9.38;99546.34;5099758;28;20059;-62
2021/06/14 06:07:59;;;;;;;5.70;3.80;;;;;;;48.81;9.21;99548.53;5099436;28;20379;-61
2021/06/14 06:10:24;;;;;;;6.20;3.53;;;;;;;49.38;8.56;99540.84;5095153;28;20079;-61
2021/06/14 06:12:50;;;;;;;6.30;3.65;;;;;;;50.42;8.63;99553.97;5098385;28;20453;-62
2021/06/14 06:15:17;;;;;;;5.97;3.40;;;;;;;50.92;8.15;99552.41;5103812;28;20038;-61
2021/06/14 06:17:43;;;;;;;5.88;3.15;;;;;;;51.41;7.69;99544.28;5090020;28;20046;-61
2021/06/14 06:20:11;;;;;;;8.63;4.90;;;;;;;52.13;7.06;99554.63;5089378;28;20043;-61
2021/06/14 06:22:38;;;;;;;4.50;3.60;;;;;;;52.73;6.78;99545.31;5089376;28;20089;-61
2021/06/14 06:25:09;;;;;;;4.88;3.67;;;;;;;53.28;5.98;99557.06;5089162;28;20491;-61
2021/06/14 06:27:35;;;;;;;4.80;3.40;;;;;;;53.56;5.89;99553.13;5088954;28;20040;-61
2021/06/14 06:30:00;;;;;;;5.32;3.63;;;;;;;53.74;6.49;99567.25;5089291;28;20096;-60
2021/06/14 06:32:27;;;;;;;4.57;3.92;;;;;;;53.64;6.12;99557.50;5090122;28;20114;-61
2021/06/14 06:34:52;;;;;;;4.30;3.92;;;;;;;54.05;5.71;99555.84;5099457;28;20769;-61
2021/06/14 06:37:18;;;;;;;5.88;4.68;;;;;;;54.70;5.72;99570.47;5098051;28;20036;-68
2021/06/14 06:39:43;;;;;;;9.43;4.13;;;;;;;55.01;5.50;99573.25;5100900;28;20030;-63
2021/06/14 06:42:09;;;;;;;4.30;3.93;;;;;;;55.29;4.97;99574.00;5098264;28;20043;-63
2021/06/14 06:44:36;;;;;;;4.63;3.80;;;;;;;55.60;4.82;99570.94;5098266;28;20249;-61
2021/06/14 06:47:04;;;;;;;5.30;3.92;;;;;;;55.69;4.86;99576.94;5099659;28;20074;-62
2021/06/14 06:49:29;;;;;;;7.15;4.60;;;;;;;55.62;4.65;99559.84;5109290;28;20114;-61
2021/06/14 06:51:55;;;;;;;4.78;4.47;;;;;;;55.87;4.44;99570.00;5110106;28;20122;-62
2021/06/14 06:54:20;;;;;;;6.60;4.50;;;;;;;55.81;4.65;99537.34;5110219;28;20032;-62
2021/06/14 06:56:50;;;;;;;4.80;4.35;;;;;;;56.19;4.19;99571.38;5109955;28;20740;-62
2021/06/14 06:59:16;;;;;;;4.95;4.45;;;;;;;56.44;4.03;99575.78;5109556;28;20172;-62
2021/06/14 07:01:42;;;;;;;6.05;4.43;;;;;;;56.60;3.87;99578.63;5106030;28;20043;-63
2021/06/14 07:04:07;;;;;;;7.63;5.50;;;;;;;56.54;3.76;99563.19;5109697;28;20024;-63
2021/06/14 07:06:33;;;;;;;5.65;4.65;;;;;;;56.70;3.72;99558.75;5100870;28;20069;-63
2021/06/14 07:08:59;;;;;;;9.15;4.72;;;;;;;56.95;3.53;99580.28;5097626;28;20036;-61
2021/06/14 07:11:26;;;;;;;5.22;4.75;;;;;;;57.37;4.04;99583.31;5095285;28;20060;-62
2021/06/14 07:13:51;;;;;;;5.65;5.10;;;;;;;57.42;3.27;99579.06;5108881;28;20044;-62
2021/06/14 07:16:17;;;;;;;6.80;5.68;;;;;;;57.74;3.62;99589.69;5095548;28;20035;-63
2021/06/14 07:18:42;;;;;;;7.47;6.65;;;;;;;57.77;3.42;99583.00;5092849;28;20028;-62
2021/06/14 07:21:08;;;;;;;5.88;5.10;;;;;;;57.37;3.34;99553.72;5102495;28;20430;-60
2021/06/14 07:23:33;;;;;;;6.10;5.53;;;;;;;57.27;3.80;99584.41;5088821;28;20399;-61
2021/06/14 07:25:59;;;;;;;5.43;4.97;;;;;;;56.99;2.87;99578.16;5096445;28;20023;-62
2021/06/14 07:28:24;;;;;;;5.57;5.03;;;;;;;56.83;3.43;99555.94;5113567;28;20310;-62
2021/06/14 07:30:50;;;;;;;5.88;5.45;;;;;;;57.17;3.37;99583.41;5112076;28;20271;-61
2021/06/14 07:33:15;;;;;;;8.27;5.50;;;;;;;57.49;3.28;99570.22;5110399;28;20689;-62
2021/06/14 07:35:41;;;;;;;6.13;5.20;;;;;;;57.60;3.10;99575.69;5102662;28;20360;-61
2021/06/14 07:38:07;;;;;;;5.80;5.35;;;;;;;57.65;3.00;99589.56;5111450;28;20289;-61
2021/06/14 07:40:32;;;;;;;5.38;4.97;;;;;;;57.70;3.16;99588.97;5111901;28;20038;-60
2021/06/14 07:42:58;;;;;;;7.45;6.85;;;;;;;57.70;3.03;99588.97;5110949;28;20235;-62
2021/06/14 07:45:25;;;;;;;7.15;6.35;;;;;;;57.35;3.38;99592.41;5101198;27;20023;-61
2021/06/14 07:47:52;;;;;;;6.15;5.60;;;;;;;57.30;3.24;99590.09;5111863;28;20445;-61
2021/06/14 07:50:18;;;;;;;6.72;6.22;;;;;;;57.69;3.37;99581.63;5112392;28;20042;-62
2021/06/14 07:52:44;;;;;;;7.07;6.45;;;;;;;58.10;3.06;99592.75;5113054;28;20032;-61
2021/06/14 07:55:11;;;;;;;7.03;6.07;;;;;;;57.96;2.87;99591.94;5113133;28;20027;-62
2021/06/14 07:57:37;;;;;;;9.02;6.40;;;;;;;57.51;3.03;99599.34;5112556;28;20379;-63
2021/06/14 08:00:05;;;;;;;6.75;6.13;;;;;;;56.92;3.16;99600.06;5112505;28;20100;-63
2021/06/14 08:02:30;;;;;;;6.60;6.10;;;;;;;56.53;3.49;99593.19;5112676;28;20039;-63
2021/06/14 08:04:56;;;;;;;6.53;5.95;;;;;;;56.16;3.66;99595.25;5112709;28;20027;-63
2021/06/14 08:07:21;;;;;;;6.03;5.53;;;;;;;55.38;4.12;99564.84;5112781;28;20547;-63
2021/06/14 08:09:51;;;;;;;7.63;4.70;;;;;;;54.71;3.75;99552.84;5112655;28;20713;-63
2021/06/14 08:12:17;;;;;;;5.13;4.68;;;;;;;54.42;4.06;99598.31;5112909;28;20096;-63
2021/06/14 08:14:43;;;;;;;5.13;4.63;;;;;;;53.75;4.63;99594.63;5111430;28;20031;-62
2021/06/14 08:17:08;;;;;;;3.95;3.60;;;;;;;53.07;4.71;99581.81;5091820;28;20113;-64
2021/06/14 08:19:52;;;;;;;4.60;3.53;;;;;;;52.23;5.24;99587.22;5090851;28;20032;-63
2021/06/14 08:25:05;;;;;;;4.38;3.10;;;;;;;47.79;7.52;99569.22;5091749;28;20063;-62
2021/06/14 08:27:37;;;;;;;4.32;2.78;;;;;;;45.07;9.60;99611.03;5090917;28;20063;-62
2021/06/14 08:30:07;;;;;;;5.18;2.88;;;;;;;42.50;11.67;99603.75;5091355;28;20375;-61
2021/06/14 08:32:33;;;;;;;6.47;2.35;;;;;;;40.43;12.84;99595.25;5090530;28;20122;-62
2021/06/14 08:34:59;;;;;;;4.72;2.90;;;;;;;38.83;14.50;99586.69;5091448;28;20089;-61
2021/06/14 08:37:25;;;;;;;5.35;3.47;;;;;;;37.69;16.04;99595.72;5090765;28;20036;-62
2021/06/14 08:39:51;;;;;;;5.13;3.25;;;;;;;36.76;17.29;99591.84;5091520;28;20031;-61
2021/06/14 08:42:16;;;;;;;7.70;3.40;;;;;;;36.09;18.33;99604.88;5106381;28;20031;-61
2021/06/14 08:44:43;;;;;;;5.07;3.35;;;;;;;35.43;18.80;99607.31;5109837;28;20631;-62
2021/06/14 08:47:09;;;;;;;3.20;2.90;;;;;;;34.58;19.24;99560.31;5109989;28;20035;-62
2021/06/14 08:49:36;;;;;;;4.35;2.70;;;;;;;34.39;19.82;99624.88;5110723;28;20029;-62
2021/06/14 08:52:02;;;;;;;4.05;3.13;;;;;;;33.22;20.49;99509.38;5111167;28;20108;-61
2021/06/14 08:54:28;;;;;;;3.40;3.10;;;;;;;33.54;20.70;99602.53;5111908;28;20051;-63
2021/06/14 08:56:54;;;;;;;3.40;3.08;;;;;;;33.35;20.99;99614.22;5110467;28;20446;-62
2021/06/14 08:59:20;;;;;;;6.70;3.13;;;;;;;33.10;21.57;99611.50;5111752;28;20395;-62
2021/06/14 09:01:45;;;;;;;5.28;3.15;;;;;;;32.87;21.85;99605.38;5112008;28;20038;-62
2021/06/14 09:04:11;;;;;;;5.95;3.35;;;;;;;32.90;22.42;99625.09;5097424;28;20115;-61
2021/06/14 09:06:36;;;;;;;4.00;2.95;;;;;;;32.63;22.12;99614.25;5091240;28;20487;-61
2021/06/14 09:09:07;;;;;;;6.13;3.25;;;;;;;32.63;22.57;99600.41;5091566;28;20457;-62
2021/06/14 09:11:36;;;;;;;4.78;3.15;;;;;;;32.63;22.67;99615.06;5091385;28;20498;-64
2021/06/14 09:14:13;;;;;;;7.07;3.30;;;;;;;32.82;22.41;99627.56;5090908;28;20120;-62
2021/06/14 09:16:38;;;;;;;5.22;2.97;;;;;;;33.05;22.03;99612.31;5090919;28;20035;-63
2021/06/14 09:19:03;;;;;;;4.57;3.15;;;;;;;33.26;22.23;99615.06;5091073;28;20040;-62
2021/06/14 09:21:30;;;;;;;3.33;3.03;;;;;;;33.22;22.20;99631.44;5091221;28;20138;-62
2021/06/14 09:23:59;;;;;;;6.97;3.58;;;;;;;33.12;22.43;99621.19;5090580;28;20035;-63
2021/06/14 09:26:36;;;;;;;5.82;3.20;;;;;;;33.15;22.24;99617.03;5090707;28;20097;-65
2021/06/14 09:29:12;;;;;;;5.20;3.72;;;;;;;32.88;22.88;99605.13;5091183;28;20125;-61
2021/06/14 09:31:46;;;;;;;3.63;3.33;;;;;;;32.63;23.51;99609.53;5091143;28;20463;-62
2021/06/14 09:34:12;;;;;;;7.93;3.10;;;;;;;32.30;23.25;99616.41;5090438;28;20032;-63
2021/06/14 09:36:39;;;;;;;4.95;2.67;;;;;;;31.92;23.20;99620.19;5090645;28;20039;-61
2021/06/14 09:39:10;;;;;;;4.38;3.00;;;;;;;31.74;23.66;99628.94;5090812;28;20136;-61
2021/06/14 09:41:44;;;;;;;3.63;3.28;;;;;;;31.69;24.40;99623.38;5090648;28;20075;-65
2021/06/14 09:44:10;;;;;;;4.00;2.90;;;;;;;31.55;24.14;99612.78;5090571;28;20040;-62
2021/06/14 09:46:36;;;;;;;4.60;3.00;;;;;;;31.47;24.14;99622.47;5090489;28;20043;-62
2021/06/14 09:49:05;;;;;;;4.55;2.72;;;;;;;31.43;24.45;99615.78;5089856;28;20399;-62
2021/06/14 09:51:34;;;;;;;4.88;3.08;;;;;;;31.20;23.82;99605.97;5091028;28;20024;-62
2021/06/14 09:54:00;;;;;;;3.80;3.33;;;;;;;31.15;24.06;99605.91;5088999;28;20441;-62
2021/06/14 09:56:29;;;;;;;4.28;3.00;;;;;;;31.12;24.32;99603.69;5090625;28;20100;-62
2021/06/14 09:58:57;;;;;;;2.70;2.50;;;;;;;31.22;24.33;99612.06;5090823;28;20043;-62
2021/06/14 10:01:27;;;;;;;2.85;2.65;;;;;;;31.28;23.86;99602.69;5090410;28;20032;-61
2021/06/14 10:03:53;;;;;;;5.47;2.67;;;;;;;31.24;23.83;99618.16;5090333;28;20036;-63
2021/06/14 10:06:30;;;;;;;4.82;2.90;;;;;;;31.21;24.50;99602.91;5090507;28;20487;-63
2021/06/14 10:08:55;;;;;;;4.38;2.90;;;;;;;31.04;24.09;99597.53;5090648;28;20036;-63
2021/06/14 10:11:21;;;;;;;3.15;2.88;;;;;;;30.98;24.10;99604.13;5090281;28;20158;-61
2021/06/14 10:13:48;;;;;;;3.28;2.80;;;;;;;30.94;23.82;99611.28;5090381;28;20040;-62
2021/06/14 10:16:20;;;;;;;3.25;2.95;;;;;;;30.91;24.75;99614.59;5089954;28;20156;-62
2021/06/14 10:18:53;;;;;;;6.20;2.70;;;;;;;30.96;24.69;99600.81;5090545;28;20032;-62
2021/06/14 10:21:26;;;;;;;3.80;2.42;;;;;;;30.98;24.43;99601.38;5090302;28;20079;-63
2021/06/14 10:23:55;;;;;;;6.30;3.13;;;;;;;30.89;25.09;99591.91;5089682;28;20481;-62
2021/06/14 10:26:21;;;;;;;4.65;3.80;;;;;;;30.94;25.83;99591.94;5088543;28;20028;-62
2021/06/14 10:28:48;;;;;;;5.35;3.50;;;;;;;30.88;26.13;99607.66;5090461;28;20153;-63
2021/06/14 10:31:14;;;;;;;4.82;3.30;;;;;;;30.67;25.88;99565.22;5089868;28;20570;-61
2021/06/14 10:33:41;;;;;;;4.45;3.17;;;;;;;30.71;26.07;99590.38;5090111;28;20093;-62
2021/06/14 10:36:08;;;;;;;6.93;3.70;;;;;;;30.53;26.57;99594.34;5089940;28;20078;-62
2021/06/14 10:38:38;;;;;;;3.95;3.17;;;;;;;30.34;26.74;99594.72;5089535;28;20073;-61
2021/06/14 10:41:04;;;;;;;6.70;4.00;;;;;;;30.02;26.61;99565.97;5090070;28;20035;-62
2021/06/14 10:43:30;;;;;;;5.78;3.47;;;;;;;30.10;27.19;99588.69;5089944;28;20512;-62
2021/06/14 10:45:57;;;;;;;4.32;3.70;;;;;;;30.16;27.35;99593.16;5089566;28;20032;-61
2021/06/14 10:48:28;;;;;;;4.30;3.85;;;;;;;30.31;27.62;99592.47;5089669;28;20410;-62
2021/06/14 10:50:55;;;;;;;7.05;4.07;;;;;;;29.80;27.54;99485.94;5089900;28;20071;-62
2021/06/14 10:53:28;;;;;;;6.05;3.70;;;;;;;30.37;27.26;99550.00;5089640;28;20035;-62
2021/06/14 10:55:55;;;;;;;5.65;3.38;;;;;;;30.85;26.27;99596.28;5089410;28;20036;-62
2021/06/14 10:58:21;;;;;;;4.72;3.28;;;;;;;30.89;26.24;99597.44;5090016;28;20119;-62
2021/06/14 11:01:07;;;;;;;3.47;3.08;;;;;;;30.85;26.05;99597.13;5091505;28;20115;-62
2021/06/14 11:03:44;;;;;;;3.80;3.22;;;;;;;30.17;26.27;99485.25;5093432;28;20522;-62
2021/06/14 11:06:22;;;;;;;7.28;3.67;;;;;;;30.86;26.23;99595.19;5093699;28;20036;-62
2021/06/14 11:09:13;;;;;;;3.42;3.10;;;;;;;30.91;25.81;99598.00;5094184;28;20047;-61
2021/06/14 11:11:59;;;;;;;4.10;3.10;;;;;;;30.92;25.86;99581.16;5093202;28;20109;-63
2021/06/14 11:14:37;;;;;;;5.97;3.03;;;;;;;30.96;26.14;99588.91;5093304;28;20040;-61
2021/06/14 11:17:15;;;;;;;3.50;3.20;;;;;;;31.08;25.79;99584.84;5093787;28;20085;-62
2021/06/14 11:19:41;;;;;;;5.68;2.90;;;;;;;31.02;25.55;99577.63;5093187;28;20028;-61
2021/06/14 11:22:07;;;;;;;3.53;3.10;;;;;;;30.88;25.81;99557.09;5093012;28;20142;-61
2021/06/14 11:24:36;;;;;;;4.30;3.05;;;;;;;30.82;25.94;99563.66;5093786;28;20032;-61
2021/06/14 11:27:02;;;;;;;6.50;2.90;;;;;;;30.78;25.85;99566.94;5093550;28;20192;-61
2021/06/14 11:29:27;;;;;;;5.95;3.20;;;;;;;30.58;25.77;99564.84;5092917;28;20059;-61
2021/06/14 11:32:03;;;;;;;6.60;3.17;;;;;;;30.31;26.28;99562.09;5093472;28;20024;-61
2021/06/14 11:34:41;;;;;;;;;;;;;;;30.49;25.81;99580.22;5093844;28;20040;-61
2021/06/14 11:37:07;;;;;;;5.43;3.45;;;;;;;30.15;26.74;99597.88;5093278;28;20375;-61
2021/06/14 11:39:34;;;;;;;4.93;3.03;;;;;;;30.10;27.42;99583.16;5092925;28;20036;-61
2021/06/14 11:42:20;;;;;;;5.00;3.17;;;;;;;30.20;27.32;99577.75;5092881;28;20129;-62